Time;durP1;ratioP1;P1;durP2;ratioP2;P2;SDS_P1;SDS_P2;PMS_P1;PMS_P2;Temp;Humidity;BMP_temperature;BMP_pressure;BME280_temperature;BME280_humidity;BME280_pressure;Samples;Min_cycle;Max_cycle;Signal;HPM_P1;HPM_P2
2021/05/22 00:00:55;;;;;;;2.70;1.10;;;;;;;;;;5094069;28;20481;-58
2021/05/22 00:03:23;;;;;;;3.30;1.87;;;;;;;;;;5094102;28;20454;-57
2021/05/22 00:05:49;;;;;;;3.93;1.63;;;;;;;;;;5093856;28;20438;-57
2021/05/22 00:08:16;;;;;;;3.47;1.43;;;;;;;;;;5093585;28;20446;-58
2021/05/22 00:10:43;;;;;;;6.03;1.27;;;;;;;;;;5093818;28;20462;-58
2021/05/22 00:13:09;;;;;;;6.67;1.57;;;;;;;;;;5093948;28;20442;-58
2021/05/22 00:15:36;;;;;;;2.60;1.20;;;;;;;;;;5093832;28;20459;-57
2021/05/22 00:18:03;;;;;;;2.30;1.03;;;;;;;;;;5093484;28;20442;-57
2021/05/22 00:20:31;;;;;;;3.00;1.20;;;;;;;;;;5093523;28;20539;-58
2021/05/22 00:22:58;;;;;;;3.07;1.70;;;;;;;;;;5093485;28;20438;-58
2021/05/22 00:25:24;;;;;;;1.87;1.30;;;;;;;;;;5093215;28;20438;-57
2021/05/22 00:27:51;;;;;;;3.60;1.70;;;;;;;;;;5093099;28;20448;-58
2021/05/22 00:30:18;;;;;;;4.17;1.47;;;;;;;;;;5093030;28;20467;-57
2021/05/22 00:32:45;;;;;;;2.37;1.67;;;;;;;;;;5093418;28;20469;-57
2021/05/22 00:35:12;;;;;;;8.50;1.23;;;;;;;;;;5093235;28;20860;-58
2021/05/22 00:37:39;;;;;;;3.37;1.53;;;;;;;;;;5093568;28;20447;-57
2021/05/22 00:40:07;;;;;;;8.50;1.73;;;;;;;;;;5092925;28;20487;-58
2021/05/22 00:42:36;;;;;;;4.50;2.00;;;;;;;;;;5093068;28;21022;-57
2021/05/22 00:45:07;;;;;;;2.17;1.20;;;;;;;;;;5093032;28;20922;-57
2021/05/22 00:47:34;;;;;;;5.30;1.63;;;;;;;;;;5092903;28;20442;-57
2021/05/22 00:50:01;;;;;;;5.33;1.73;;;;;;;;;;5093140;28;20958;-57
2021/05/22 00:52:28;;;;;;;3.73;1.60;;;;;;;;;;5092807;28;20868;-58
2021/05/22 00:54:56;;;;;;;2.83;1.30;;;;;;;;;;5093991;28;20803;-58
2021/05/22 00:57:23;;;;;;;2.80;1.20;;;;;;;;;;5092888;28;20930;-57
2021/05/22 00:59:49;;;;;;;4.93;1.27;;;;;;;;;;5093767;28;20868;-58
2021/05/22 01:02:21;;;;;;;4.80;1.33;;;;;;;;;;5092953;28;20439;-57
2021/05/22 01:07:26;;;;;;;2.50;1.20;;;;;;;;;;5072206;28;20466;-59
2021/05/22 01:09:55;;;;;;;2.33;1.40;;;;;;;;;;5073100;28;20435;-60
2021/05/22 01:12:25;;;;;;;2.70;1.90;;;;;;;;;;5073070;28;20466;-60
2021/05/22 01:14:54;;;;;;;2.83;1.53;;;;;;;;;;5072966;28;20442;-60
2021/05/22 01:17:21;;;;;;;6.30;1.57;;;;;;;;;;5073027;28;20439;-60
2021/05/22 01:19:54;;;;;;;3.73;1.83;;;;;;;;;;5072876;28;20506;-60
2021/05/22 01:22:21;;;;;;;4.47;1.60;;;;;;;;;;5072921;28;20431;-60
2021/05/22 01:24:49;;;;;;;2.83;1.50;;;;;;;;;;5073064;28;20450;-60
2021/05/22 01:27:17;;;;;;;2.43;1.30;;;;;;;;;;5075119;28;20439;-60
2021/05/22 01:29:44;;;;;;;1.90;1.10;;;;;;;;;;5078143;28;20439;-60
2021/05/22 01:32:11;;;;;;;3.00;1.33;;;;;;;;;;5077690;28;20841;-58
2021/05/22 01:34:38;;;;;;;4.63;1.57;;;;;;;;;;5077286;28;21012;-60
2021/05/22 01:37:04;;;;;;;5.03;1.50;;;;;;;;;;5076920;28;21013;-59
2021/05/22 01:39:31;;;;;;;3.67;1.30;;;;;;;;;;5076969;28;20450;-60
2021/05/22 01:41:58;;;;;;;4.30;1.70;;;;;;;;;;5076655;28;20965;-59
2021/05/22 01:44:27;;;;;;;2.90;1.33;;;;;;;;;;5076829;28;20443;-59
2021/05/22 01:46:54;;;;;;;2.10;1.10;;;;;;;;;;5076338;28;20462;-60
2021/05/22 01:49:25;;;;;;;2.77;1.20;;;;;;;;;;5076381;28;20447;-59
2021/05/22 01:51:53;;;;;;;3.10;1.63;;;;;;;;;;5076379;28;20466;-60
2021/05/22 01:54:20;;;;;;;2.33;1.50;;;;;;;;;;5075930;28;20931;-60
2021/05/22 01:56:48;;;;;;;6.70;1.33;;;;;;;;;;5075768;28;20948;-60
2021/05/22 01:59:15;;;;;;;3.80;1.30;;;;;;;;;;5076183;28;20807;-60
2021/05/22 02:01:42;;;;;;;1.83;0.97;;;;;;;;;;5075716;28;20475;-60
2021/05/22 02:04:09;;;;;;;3.00;1.80;;;;;;;;;;5075936;28;20452;-60
2021/05/22 02:06:39;;;;;;;3.90;1.60;;;;;;;;;;5075423;28;21056;-60
2021/05/22 02:09:06;;;;;;;3.57;1.40;;;;;;;;;;5075555;28;20927;-60
2021/05/22 02:11:34;;;;;;;2.63;1.20;;;;;;;;;;5075644;28;20439;-60
2021/05/22 02:14:03;;;;;;;1.60;1.00;;;;;;;;;;5075726;28;20862;-60
2021/05/22 02:16:31;;;;;;;5.53;1.43;;;;;;;;;;5075646;28;20471;-60
2021/05/22 02:19:00;;;;;;;2.77;1.37;;;;;;;;;;5075635;28;20501;-60
2021/05/22 02:21:28;;;;;;;3.57;1.33;;;;;;;;;;5075352;28;20475;-60
2021/05/22 02:23:55;;;;;;;3.43;1.33;;;;;;;;;;5075322;28;20443;-60
2021/05/22 02:26:23;;;;;;;1.60;1.00;;;;;;;;;;5075152;28;20470;-60
2021/05/22 02:28:51;;;;;;;4.55;1.10;;;;;;;;;;5075185;28;20205;-60
2021/05/22 02:31:19;;;;;;;4.60;1.80;;;;;;;;;;5075503;28;20612;-60
2021/05/22 02:33:47;;;;;;;2.10;1.10;;;;;;;;;;5075521;28;20200;-60
2021/05/22 02:36:14;;;;;;;4.53;1.30;;;;;;;;;;5075362;28;20459;-60
2021/05/22 02:38:44;;;;;;;3.97;1.30;;;;;;;;;;5074853;28;20443;-60
2021/05/22 02:41:11;;;;;;;2.03;1.30;;;;;;;;;;5075205;28;20220;-60
2021/05/22 02:43:39;;;;;;;3.20;1.53;;;;;;;;;;5075296;28;20453;-60
2021/05/22 02:46:06;;;;;;;2.30;1.57;;;;;;;;;;5075078;28;20475;-60
2021/05/22 02:48:36;;;;;;;2.63;0.90;;;;;;;;;;5075162;28;20439;-60
2021/05/22 02:51:03;;;;;;;2.13;1.20;;;;;;;;;;5076277;28;20789;-60
2021/05/22 02:53:32;;;;;;;5.13;1.67;;;;;;;;;;5075157;28;20443;-60
2021/05/22 02:55:59;;;;;;;2.07;1.30;;;;;;;;;;5075070;28;20459;-60
2021/05/22 02:58:25;;;;;;;2.33;1.23;;;;;;;;;;5075065;28;20828;-60
2021/05/22 03:00:53;;;;;;;3.15;2.45;;;;;;;;;;5074785;28;20518;-60
2021/05/22 03:03:20;;;;;;;3.30;1.23;;;;;;;;;;5074868;28;20201;-60
2021/05/22 03:05:47;;;;;;;3.10;1.02;;;;;;;;;;5075216;28;20559;-60
2021/05/22 03:08:13;;;;;;;2.20;1.35;;;;;;;;;;5074815;28;20204;-60
2021/05/22 03:10:41;;;;;;;2.28;1.77;;;;;;;;;;5074787;28;20197;-60
2021/05/22 03:13:08;;;;;;;2.40;1.10;;;;;;;;;;5074827;28;20200;-60
2021/05/22 03:15:35;;;;;;;2.13;1.10;;;;;;;;;;5074522;28;20294;-60
2021/05/22 03:18:01;;;;;;;3.03;1.13;;;;;;;;;;5074246;28;20235;-60
2021/05/22 03:20:28;;;;;;;4.43;1.15;;;;;;;;;;5074537;28;20689;-60
2021/05/22 03:22:55;;;;;;;2.30;1.40;;;;;;;;;;5074479;28;20204;-60
2021/05/22 03:25:22;;;;;;;2.25;1.30;;;;;;;;;;5074437;28;20517;-59
2021/05/22 03:27:49;;;;;;;2.13;1.20;;;;;;;;;;5074165;28;20615;-60
2021/05/22 03:30:17;;;;;;;2.88;1.27;;;;;;;;;;5073980;28;20201;-60
2021/05/22 03:32:43;;;;;;;2.97;1.58;;;;;;;;;;5074316;28;20197;-60
2021/05/22 03:35:11;;;;;;;2.30;1.52;;;;;;;;;;5074279;28;21531;-60
2021/05/22 03:37:37;;;;;;;2.97;1.20;;;;;;;;;;5074257;28;20209;-60
2021/05/22 03:40:05;;;;;;;1.57;1.20;;;;;;;;;;5074046;28;20217;-60
2021/05/22 03:42:32;;;;;;;3.28;1.00;;;;;;;;;;5074058;28;20479;-60
2021/05/22 03:45:00;;;;;;;4.38;1.20;;;;;;;;;;5073922;28;20197;-60
2021/05/22 03:47:26;;;;;;;2.63;1.23;;;;;;;;;;5073804;28;20205;-60
2021/05/22 03:49:53;;;;;;;3.65;1.73;;;;;;;;;;5073433;28;20466;-60
2021/05/22 03:52:20;;;;;;;4.40;1.40;;;;;;;;;;5073935;28;20201;-60
2021/05/22 03:54:47;;;;;;;2.53;1.35;;;;;;;;;;5073959;28;20207;-60
2021/05/22 03:57:13;;;;;;;2.60;1.20;;;;;;;;;;5074257;28;20587;-60
2021/05/22 03:59:40;;;;;;;2.27;1.23;;;;;;;;;;5073749;28;20205;-60
2021/05/22 04:02:08;;;;;;;4.00;1.35;;;;;;;;;;5073406;28;20930;-59
2021/05/22 04:08:07;;;;;;;2.17;1.10;;;;;;;;;;5132627;27;20542;-58
2021/05/22 04:10:34;;;;;;;2.60;1.60;;;;;;;;;;5131929;27;20782;-59
2021/05/22 04:13:01;;;;;;;1.97;1.17;;;;;;;;;;5133063;27;20780;-59
2021/05/22 04:15:27;;;;;;;1.90;1.07;;;;;;;;;;5131980;27;20461;-59
2021/05/22 04:17:54;;;;;;;2.93;1.23;;;;;;;;;;5131814;27;20444;-59
2021/05/22 04:20:21;;;;;;;3.07;1.10;;;;;;;;;;5131597;27;20448;-59
2021/05/22 04:22:47;;;;;;;4.93;1.20;;;;;;;;;;5131856;27;20437;-59
2021/05/22 04:25:15;;;;;;;3.87;1.23;;;;;;;;;;5131497;27;20472;-59
2021/05/22 04:27:42;;;;;;;3.03;1.80;;;;;;;;;;5131546;27;20472;-59
2021/05/22 04:30:09;;;;;;;4.00;1.20;;;;;;;;;;5131565;27;20449;-59
2021/05/22 04:32:36;;;;;;;3.60;1.37;;;;;;;;;;5131422;27;20436;-59
2021/05/22 04:35:03;;;;;;;2.40;1.30;;;;;;;;;;5131349;27;20451;-59
2021/05/22 04:37:30;;;;;;;4.10;1.53;;;;;;;;;;5131361;27;20441;-59
2021/05/22 04:39:56;;;;;;;1.60;0.90;;;;;;;;;;5131472;27;20444;-59
2021/05/22 04:42:24;;;;;;;5.57;1.40;;;;;;;;;;5131555;27;20807;-59
2021/05/22 04:44:51;;;;;;;4.40;1.13;;;;;;;;;;5131032;27;20940;-60
2021/05/22 04:47:18;;;;;;;4.27;1.47;;;;;;;;;;5131196;27;20468;-60
2021/05/22 04:49:44;;;;;;;2.90;1.23;;;;;;;;;;5131501;27;20466;-59
2021/05/22 04:52:11;;;;;;;3.33;0.97;;;;;;;;;;5131489;27;20471;-59
2021/05/22 04:54:38;;;;;;;2.40;1.23;;;;;;;;;;5131545;27;20509;-59
2021/05/22 04:57:05;;;;;;;2.00;1.00;;;;;;;;;;5130965;27;21019;-59
2021/05/22 04:59:32;;;;;;;2.27;1.43;;;;;;;;;;5130850;27;20433;-59
2021/05/22 05:01:59;;;;;;;2.93;0.97;;;;;;;;;;5130876;27;20514;-58
2021/05/22 05:04:26;;;;;;;4.27;1.10;;;;;;;;;;5131021;27;20484;-58
2021/05/22 05:06:53;;;;;;;4.60;1.20;;;;;;;;;;5131499;27;20488;-58
2021/05/22 05:09:20;;;;;;;3.73;1.43;;;;;;;;;;5130980;27;20514;-58
2021/05/22 05:11:47;;;;;;;2.63;1.47;;;;;;;;;;5130881;27;20444;-58
2021/05/22 05:14:14;;;;;;;4.43;0.73;;;;;;;;;;5131034;27;20437;-58
2021/05/22 05:16:41;;;;;;;2.97;0.97;;;;;;;;;;5130647;27;20463;-58
2021/05/22 05:19:08;;;;;;;3.23;1.10;;;;;;;;;;5119030;27;20486;-58
2021/05/22 05:21:35;;;;;;;2.83;1.20;;;;;;;;;;5117220;28;20452;-58
2021/05/22 05:24:01;;;;;;;5.57;1.20;;;;;;;;;;5117657;28;20446;-58
2021/05/22 05:26:28;;;;;;;3.80;1.50;;;;;;;;;;5116617;28;20480;-58
2021/05/22 05:28:55;;;;;;;2.87;1.10;;;;;;;;;;5116619;28;20445;-58
2021/05/22 05:31:22;;;;;;;2.37;1.40;;;;;;;;;;5116721;28;20460;-58
2021/05/22 05:33:49;;;;;;;3.00;1.67;;;;;;;;;;5116490;28;20468;-58
2021/05/22 05:36:16;;;;;;;4.63;1.57;;;;;;;;;;5116121;28;21041;-58
2021/05/22 05:38:43;;;;;;;1.90;0.70;;;;;;;;;;5116164;28;20955;-58
2021/05/22 05:41:10;;;;;;;4.33;1.73;;;;;;;;;;5116378;28;20609;-58
2021/05/22 05:43:37;;;;;;;2.57;1.20;;;;;;;;;;5116001;28;20498;-58
2021/05/22 05:46:03;;;;;;;2.93;1.10;;;;;;;;;;5115770;28;20468;-58
2021/05/22 05:48:30;;;;;;;4.97;1.40;;;;;;;;;;5116206;28;20448;-58
2021/05/22 05:50:58;;;;;;;1.50;1.20;;;;;;;;;;5116157;28;20490;-58
2021/05/22 05:53:24;;;;;;;4.17;1.10;;;;;;;;;;5115775;28;21001;-59
2021/05/22 05:55:51;;;;;;;2.47;1.20;;;;;;;;;;5115745;28;20469;-59
2021/05/22 05:58:18;;;;;;;1.30;1.03;;;;;;;;;;5115935;28;20461;-58
2021/05/22 06:00:45;;;;;;;3.17;1.10;;;;;;;;;;5115961;28;20447;-59
2021/05/22 06:03:11;;;;;;;2.80;1.37;;;;;;;;;;5115940;28;20498;-59
2021/05/22 06:05:38;;;;;;;3.07;1.03;;;;;;;;;;5115749;28;20466;-59
2021/05/22 06:08:07;;;;;;;4.00;1.50;;;;;;;;;;5115758;28;20477;-59
2021/05/22 06:10:33;;;;;;;3.47;1.40;;;;;;;;;;5115613;28;20502;-59
2021/05/22 06:13:00;;;;;;;2.17;0.93;;;;;;;;;;5115484;28;20441;-59
2021/05/22 06:15:31;;;;;;;2.53;1.00;;;;;;;;;;5115345;28;20461;-59
2021/05/22 06:17:58;;;;;;;5.80;1.63;;;;;;;;;;5115477;27;20465;-59
2021/05/22 06:20:26;;;;;;;2.23;1.20;;;;;;;;;;5115279;28;20452;-59
2021/05/22 06:22:53;;;;;;;6.23;1.67;;;;;;;;;;5115436;28;20446;-58
2021/05/22 06:25:21;;;;;;;2.70;1.03;;;;;;;;;;5115344;28;20476;-59
2021/05/22 06:27:47;;;;;;;5.07;1.47;;;;;;;;;;5115455;28;20534;-59
2021/05/22 06:30:15;;;;;;;2.37;0.90;;;;;;;;;;5114158;28;20448;-60
2021/05/22 06:32:41;;;;;;;5.23;1.40;;;;;;;;;;5114962;28;20438;-60
2021/05/22 06:35:08;;;;;;;3.53;1.10;;;;;;;;;;5115603;28;20449;-59
2021/05/22 06:37:35;;;;;;;7.50;0.93;;;;;;;;;;5115218;28;20510;-59
2021/05/22 06:40:02;;;;;;;2.30;1.10;;;;;;;;;;5115032;28;20450;-58
2021/05/22 06:42:32;;;;;;;6.57;1.80;;;;;;;;;;5115115;28;20441;-61
2021/05/22 06:45:02;;;;;;;3.23;1.10;;;;;;;;;;5116483;28;20833;-61
2021/05/22 06:47:29;;;;;;;2.57;0.97;;;;;;;;;;5114719;28;20461;-60
2021/05/22 06:49:56;;;;;;;2.67;1.20;;;;;;;;;;5114706;28;21011;-60
2021/05/22 06:52:23;;;;;;;4.20;1.47;;;;;;;;;;5114857;28;20502;-60
2021/05/22 06:54:50;;;;;;;2.83;1.40;;;;;;;;;;5114638;28;20452;-59
2021/05/22 06:57:17;;;;;;;5.57;1.30;;;;;;;;;;5114547;28;20441;-60
2021/05/22 06:59:45;;;;;;;3.93;1.27;;;;;;;;;;5114868;28;20528;-60
2021/05/22 07:02:12;;;;;;;4.90;1.47;;;;;;;;;;5114794;28;20453;-60
2021/05/22 07:04:39;;;;;;;3.23;1.30;;;;;;;;;;5114751;28;20442;-60
2021/05/22 07:07:06;;;;;;;2.30;1.13;;;;;;;;;;5114151;28;20928;-60
2021/05/22 07:09:32;;;;;;;6.00;1.80;;;;;;;;;;5148153;22;20482;-57
2021/05/22 07:11:59;;;;;;;4.80;1.37;;;;;;;;;;5114226;28;21020;-57
2021/05/22 07:14:27;;;;;;;4.03;1.50;;;;;;;;;;5114116;28;20998;-57
2021/05/22 07:16:57;;;;;;;3.33;1.47;;;;;;;;;;5114114;28;20741;-56
2021/05/22 07:19:26;;;;;;;4.50;1.50;;;;;;;;;;5114144;28;20492;-58
2021/05/22 07:21:52;;;;;;;2.03;1.10;;;;;;;;;;5114222;28;20954;-57
2021/05/22 07:24:20;;;;;;;3.23;1.50;;;;;;;;;;5114038;28;20437;-58
2021/05/22 07:26:46;;;;;;;2.30;0.83;;;;;;;;;;5114088;28;21061;-58
2021/05/22 07:29:13;;;;;;;4.10;1.00;;;;;;;;;;5114044;28;20465;-58
2021/05/22 07:31:42;;;;;;;3.13;1.10;;;;;;;;;;5113561;28;20856;-57
2021/05/22 07:34:10;;;;;;;2.47;1.20;;;;;;;;;;5113940;28;20531;-57
2021/05/22 07:36:37;;;;;;;2.80;1.20;;;;;;;;;;5114154;28;20900;-58
2021/05/22 07:39:04;;;;;;;2.30;0.90;;;;;;;;;;5113869;28;20457;-57
2021/05/22 07:41:31;;;;;;;5.70;1.60;;;;;;;;;;5113535;28;20936;-58
2021/05/22 07:43:57;;;;;;;4.50;1.40;;;;;;;;;;5113656;28;20446;-56
2021/05/22 07:46:24;;;;;;;2.50;1.20;;;;;;;;;;5113454;28;20484;-57
2021/05/22 07:48:51;;;;;;;5.00;1.60;;;;;;;;;;5113831;28;20441;-59
2021/05/22 07:51:18;;;;;;;4.60;1.30;;;;;;;;;;5114213;28;20448;-57
2021/05/22 07:53:45;;;;;;;3.03;1.40;;;;;;;;;;5113591;28;20486;-57
2021/05/22 07:56:12;;;;;;;3.07;1.10;;;;;;;;;;5113823;28;20445;-57
2021/05/22 07:58:39;;;;;;;4.90;1.30;;;;;;;;;;5113543;28;20452;-57
2021/05/22 08:01:05;;;;;;;4.73;0.97;;;;;;;;;;5113536;28;20548;-57
2021/05/22 08:03:32;;;;;;;4.20;1.77;;;;;;;;;;5113638;28;20448;-57
2021/05/22 08:05:59;;;;;;;2.90;1.33;;;;;;;;;;5113641;28;20499;-58
2021/05/22 08:08:27;;;;;;;2.23;1.10;;;;;;;;;;5113391;28;20441;-57
2021/05/22 08:10:53;;;;;;;4.23;1.40;;;;;;;;;;5113285;28;20473;-57
2021/05/22 08:13:20;;;;;;;4.03;1.60;;;;;;;;;;5113576;28;20453;-59
2021/05/22 08:15:47;;;;;;;1.97;1.40;;;;;;;;;;5113566;28;20441;-57
2021/05/22 08:18:14;;;;;;;3.30;0.90;;;;;;;;;;5113556;28;20453;-58
2021/05/22 08:20:40;;;;;;;4.20;1.23;;;;;;;;;;5113002;28;20466;-60
2021/05/22 08:23:07;;;;;;;2.50;1.47;;;;;;;;;;5113318;28;20438;-59
2021/05/22 08:25:35;;;;;;;3.90;1.10;;;;;;;;;;5113162;28;20456;-58
2021/05/22 08:28:01;;;;;;;3.27;1.43;;;;;;;;;;5113159;28;20473;-58
2021/05/22 08:30:28;;;;;;;4.33;1.50;;;;;;;;;;5113041;28;20981;-57
2021/05/22 08:32:56;;;;;;;2.70;1.00;;;;;;;;;;5113161;28;20938;-59
2021/05/22 08:35:23;;;;;;;4.07;1.00;;;;;;;;;;5113614;28;20445;-58
2021/05/22 08:37:49;;;;;;;4.97;1.10;;;;;;;;;;5113840;28;20441;-57
2021/05/22 08:40:16;;;;;;;5.23;1.23;;;;;;;;;;5112803;28;20469;-57
2021/05/22 08:42:44;;;;;;;2.00;0.93;;;;;;;;;;5113101;28;20448;-58
2021/05/22 08:45:12;;;;;;;2.40;1.30;;;;;;;;;;5112936;28;20450;-57
2021/05/22 08:47:39;;;;;;;3.30;1.17;;;;;;;;;;5112968;28;20473;-58
2021/05/22 08:50:07;;;;;;;7.30;1.20;;;;;;;;;;5113231;28;20828;-57
2021/05/22 08:52:34;;;;;;;2.23;1.30;;;;;;;;;;5113484;28;20449;-57
2021/05/22 08:55:01;;;;;;;2.37;1.20;;;;;;;;;;5117213;28;20445;-58
2021/05/22 08:57:28;;;;;;;8.37;1.73;;;;;;;;;;5116912;28;20467;-58
2021/05/22 08:59:56;;;;;;;4.67;1.40;;;;;;;;;;5116902;28;20452;-58
2021/05/22 09:02:23;;;;;;;4.00;1.30;;;;;;;;;;5117171;28;20445;-58
2021/05/22 09:05:08;;;;;;;2.20;0.80;;;;;;;;;;5116848;28;20442;-58
2021/05/22 09:07:36;;;;;;;2.30;1.03;;;;;;;;;;5116924;28;20880;-58
2021/05/22 09:10:09;;;;;;;3.20;0.97;;;;;;;;;;5116522;28;20473;-61
2021/05/22 09:12:36;;;;;;;3.43;1.00;;;;;;;;;;5116819;28;20456;-58
2021/05/22 09:15:07;;;;;;;3.40;1.07;;;;;;;;;;5116605;28;20494;-57
2021/05/22 09:17:34;;;;;;;2.80;1.00;;;;;;;;;;5116607;28;20453;-58
2021/05/22 09:20:15;;;;;;;2.80;1.10;;;;;;;;;;5116444;28;21006;-58
2021/05/22 09:22:42;;;;;;;1.30;0.80;;;;;;;;;;5116325;28;20969;-59
2021/05/22 09:25:10;;;;;;;6.60;1.17;;;;;;;;;;5116596;28;20449;-57
2021/05/22 09:27:37;;;;;;;3.70;1.10;;;;;;;;;;5116737;28;20473;-58
2021/05/22 09:30:11;;;;;;;3.23;0.93;;;;;;;;;;5116115;28;20457;-58
2021/05/22 09:32:38;;;;;;;1.67;1.10;;;;;;;;;;5116744;28;20426;-58
2021/05/22 09:35:06;;;;;;;1.50;1.00;;;;;;;;;;5116571;28;20486;-58
2021/05/22 09:37:37;;;;;;;1.77;0.90;;;;;;;;;;5116263;28;20452;-58
2021/05/22 09:40:04;;;;;;;3.13;1.37;;;;;;;;;;5115883;28;20465;-58
2021/05/22 09:42:32;;;;;;;2.40;0.90;;;;;;;;;;5116111;28;20445;-58
2021/05/22 09:45:01;;;;;;;3.73;0.93;;;;;;;;;;5116764;28;20941;-56
2021/05/22 09:47:28;;;;;;;2.03;0.97;;;;;;;;;;5116901;28;20469;-57
2021/05/22 09:49:55;;;;;;;3.00;1.40;;;;;;;;;;5115855;28;20457;-58
2021/05/22 09:52:22;;;;;;;2.33;0.87;;;;;;;;;;5115993;28;20847;-59
2021/05/22 09:54:50;;;;;;;2.97;1.03;;;;;;;;;;5116083;28;20799;-58
2021/05/22 09:57:17;;;;;;;3.60;1.10;;;;;;;;;;5116067;28;20442;-58
2021/05/22 10:00:04;;;;;;;1.93;0.90;;;;;;;;;;5116181;28;20509;-57
2021/05/22 10:02:40;;;;;;;0.93;0.73;;;;;;;;;;5115794;28;20452;-57
2021/05/22 10:05:14;;;;;;;1.20;0.80;;;;;;;;;;5115653;28;20814;-58
2021/05/22 10:07:41;;;;;;;2.97;1.13;;;;;;;;;;5115965;28;20473;-56
2021/05/22 10:10:08;;;;;;;2.13;1.33;;;;;;;;;;5115377;28;20511;-58
2021/05/22 10:12:37;;;;;;;5.10;1.40;;;;;;;;;;5115529;28;20471;-58
2021/05/22 10:15:04;;;;;;;2.97;1.30;;;;;;;;;;5115597;28;20529;-57
2021/05/22 10:17:31;;;;;;;1.13;1.00;;;;;;;;;;5115290;28;20962;-57
2021/05/22 10:19:59;;;;;;;2.97;1.10;;;;;;;;;;5115026;28;20472;-57
2021/05/22 10:22:26;;;;;;;5.03;1.80;;;;;;;;;;5115228;28;20488;-57
2021/05/22 10:24:53;;;;;;;2.73;1.10;;;;;;;;;;5115296;28;20445;-57
2021/05/22 10:27:20;;;;;;;1.63;0.83;;;;;;;;;;5115434;28;20537;-58
2021/05/22 10:29:47;;;;;;;3.30;1.10;;;;;;;;;;5115190;28;21011;-58
2021/05/22 10:32:22;;;;;;;2.73;1.13;;;;;;;;;;5115387;28;20463;-58
2021/05/22 10:34:49;;;;;;;2.93;1.27;;;;;;;;;;5115312;28;20460;-58
2021/05/22 10:37:34;;;;;;;1.70;1.20;;;;;;;;;;5115849;28;20449;-58
2021/05/22 10:40:02;;;;;;;3.37;1.07;;;;;;;;;;5115405;28;20458;-58
2021/05/22 10:42:45;;;;;;;1.87;1.10;;;;;;;;;;5114710;28;20452;-57
2021/05/22 10:45:26;;;;;;;1.77;1.10;;;;;;;;;;5114919;28;20452;-58
2021/05/22 10:47:54;;;;;;;1.93;1.13;;;;;;;;;;5114943;28;20477;-57
2021/05/22 10:50:33;;;;;;;1.77;1.20;;;;;;;;;;5115324;28;20465;-58
2021/05/22 10:53:15;;;;;;;1.63;0.97;;;;;;;;;;5115075;28;20429;-58
2021/05/22 10:55:42;;;;;;;2.70;1.00;;;;;;;;;;5113782;28;20445;-57
2021/05/22 10:58:12;;;;;;;1.53;0.90;;;;;;;;;;5114688;28;20441;-57
2021/05/22 11:00:39;;;;;;;2.27;0.90;;;;;;;;;;5114214;28;20490;-57
2021/05/22 11:03:10;;;;;;;4.37;1.40;;;;;;;;;;5114291;28;20433;-56
2021/05/22 11:05:38;;;;;;;3.40;0.83;;;;;;;;;;5114441;28;20437;-57
2021/05/22 11:08:23;;;;;;;1.13;0.70;;;;;;;;;;5114425;28;20469;-57
2021/05/22 11:10:58;;;;;;;1.13;0.70;;;;;;;;;;5113834;28;20468;-56
2021/05/22 11:13:35;;;;;;;1.63;0.80;;;;;;;;;;5114349;28;20442;-56
2021/05/22 11:16:05;;;;;;;1.50;1.00;;;;;;;;;;5113573;28;20490;-56
2021/05/22 11:18:49;;;;;;;0.70;0.60;;;;;;;;;;5114421;28;20446;-58
2021/05/22 11:21:18;;;;;;;1.47;0.60;;;;;;;;;;5114541;28;20445;-58
2021/05/22 11:24:05;;;;;;;1.70;0.80;;;;;;;;;;5114103;28;20498;-58
2021/05/22 11:26:52;;;;;;;1.37;0.80;;;;;;;;;;5115108;28;20441;-58
2021/05/22 11:29:21;;;;;;;1.37;0.70;;;;;;;;;;5114293;28;20925;-58
2021/05/22 11:31:48;;;;;;;2.80;0.67;;;;;;;;;;5114088;28;20803;-58
2021/05/22 11:34:28;;;;;;;0.80;0.60;;;;;;;;;;5113777;28;20441;-58
2021/05/22 11:37:09;;;;;;;2.13;0.90;;;;;;;;;;5114318;28;20433;-58
2021/05/22 11:39:39;;;;;;;1.70;0.60;;;;;;;;;;5113349;28;20872;-58
2021/05/22 11:42:21;;;;;;;1.33;0.70;;;;;;;;;;5114224;28;20448;-58
2021/05/22 11:44:54;;;;;;;3.60;1.80;;;;;;;;;;5113250;28;21006;-58
2021/05/22 11:47:20;;;;;;;1.70;0.70;;;;;;;;;;5113861;28;20506;-58
2021/05/22 11:49:49;;;;;;;1.20;0.70;;;;;;;;;;5114108;28;20469;-58
2021/05/22 11:52:29;;;;;;;1.10;0.60;;;;;;;;;;5113563;28;20441;-58
2021/05/22 11:54:57;;;;;;;1.23;0.70;;;;;;;;;;5113583;28;20445;-58
2021/05/22 11:57:24;;;;;;;1.27;0.63;;;;;;;;;;5113609;28;20446;-57
2021/05/22 11:59:51;;;;;;;1.03;0.50;;;;;;;;;;5113809;28;20469;-57
2021/05/22 12:02:37;;;;;;;2.10;1.00;;;;;;;;;;5113444;28;20941;-58
2021/05/22 12:05:04;;;;;;;1.70;0.83;;;;;;;;;;5113468;28;20531;-57
2021/05/22 12:07:46;;;;;;;1.60;0.90;;;;;;;;;;5113576;28;20474;-58
2021/05/22 12:10:13;;;;;;;1.37;0.77;;;;;;;;;;5113047;28;20476;-57
2021/05/22 12:12:40;;;;;;;1.40;0.73;;;;;;;;;;5113628;28;20871;-58
2021/05/22 12:15:07;;;;;;;1.80;0.70;;;;;;;;;;5113255;28;20889;-58
2021/05/22 12:17:44;;;;;;;0.80;0.70;;;;;;;;;;5113589;28;20477;-56
2021/05/22 12:20:12;;;;;;;1.30;0.60;;;;;;;;;;5113519;28;20472;-58
2021/05/22 12:22:39;;;;;;;1.47;0.70;;;;;;;;;;5113374;28;20491;-58
2021/05/22 12:25:06;;;;;;;2.47;1.00;;;;;;;;;;5113426;28;20442;-56
2021/05/22 12:27:33;;;;;;;1.10;0.70;;;;;;;;;;5112959;28;20942;-57
2021/05/22 12:30:00;;;;;;;0.80;0.70;;;;;;;;;;5118311;28;20461;-57
2021/05/22 12:32:27;;;;;;;1.40;0.80;;;;;;;;;;5117253;28;20494;-56
2021/05/22 12:34:59;;;;;;;1.27;0.70;;;;;;;;;;5117268;28;20945;-58
2021/05/22 12:37:26;;;;;;;0.80;0.70;;;;;;;;;;5117358;28;20437;-57
2021/05/22 12:39:57;;;;;;;0.87;0.70;;;;;;;;;;5117041;28;20469;-57
2021/05/22 12:42:25;;;;;;;1.30;0.63;;;;;;;;;;5116611;28;20433;-56
2021/05/22 12:44:52;;;;;;;0.93;0.83;;;;;;;;;;5116796;28;20453;-55
2021/05/22 12:47:21;;;;;;;1.30;0.60;;;;;;;;;;5116505;28;21052;-56
2021/05/22 12:50:01;;;;;;;1.57;0.93;;;;;;;;;;5116804;28;20602;-56
2021/05/22 12:52:28;;;;;;;1.67;0.80;;;;;;;;;;5117035;28;20516;-56
2021/05/22 12:54:55;;;;;;;1.00;0.70;;;;;;;;;;5116334;28;20449;-56
2021/05/22 12:57:23;;;;;;;1.67;0.80;;;;;;;;;;5116843;28;20497;-56
2021/05/22 13:00:12;;;;;;;0.70;0.60;;;;;;;;;;5116712;28;20465;-55
2021/05/22 13:02:47;;;;;;;0.90;0.70;;;;;;;;;;5116813;28;20422;-56
2021/05/22 13:05:19;;;;;;;1.38;0.80;;;;;;;;;;5116227;28;20430;-56
2021/05/22 13:07:46;;;;;;;1.03;0.70;;;;;;;;;;5117463;28;20292;-56
2021/05/22 13:10:13;;;;;;;0.90;0.80;;;;;;;;;;5116748;28;20824;-55
2021/05/22 13:12:53;;;;;;;1.23;0.80;;;;;;;;;;5117030;28;20441;-57
2021/05/22 13:15:20;;;;;;;1.20;1.00;;;;;;;;;;5116584;28;20797;-56
2021/05/22 13:17:51;;;;;;;2.53;1.03;;;;;;;;;;5116436;28;20448;-56
2021/05/22 13:20:20;;;;;;;1.90;1.10;;;;;;;;;;5116251;28;20464;-56
2021/05/22 13:22:47;;;;;;;1.43;1.10;;;;;;;;;;5116372;28;20843;-56
2021/05/22 13:25:16;;;;;;;2.03;0.90;;;;;;;;;;5116041;28;20846;-57
2021/05/22 13:27:59;;;;;;;1.00;0.90;;;;;;;;;;5116319;28;20473;-57
2021/05/22 13:30:26;;;;;;;0.90;0.90;;;;;;;;;;5116063;28;20476;-57
2021/05/22 13:32:53;;;;;;;1.20;0.83;;;;;;;;;;5117573;28;20449;-54
2021/05/22 13:35:22;;;;;;;1.53;1.20;;;;;;;;;;5116884;28;20543;-57
2021/05/22 13:37:49;;;;;;;3.30;1.23;;;;;;;;;;5115723;28;20445;-56
2021/05/22 13:40:16;;;;;;;2.00;1.10;;;;;;;;;;5115514;28;20473;-56
2021/05/22 13:42:42;;;;;;;1.13;0.90;;;;;;;;;;5115588;28;20441;-56
2021/05/22 13:45:10;;;;;;;2.80;0.80;;;;;;;;;;5115635;28;20441;-56
2021/05/22 13:47:37;;;;;;;2.70;1.10;;;;;;;;;;5115870;28;20480;-57
2021/05/22 13:50:05;;;;;;;3.60;1.17;;;;;;;;;;5116324;28;20582;-57
2021/05/22 13:52:33;;;;;;;2.30;0.83;;;;;;;;;;5115671;28;20449;-57
2021/05/22 13:54:59;;;;;;;1.13;0.73;;;;;;;;;;5115472;28;20858;-56
2021/05/22 13:57:26;;;;;;;1.80;1.20;;;;;;;;;;5116410;28;20437;-56
2021/05/22 13:59:53;;;;;;;0.80;0.80;;;;;;;;;;5115491;28;20511;-57
2021/05/22 14:02:20;;;;;;;1.40;0.93;;;;;;;;;;5115192;28;20446;-58
2021/05/22 14:04:47;;;;;;;2.57;1.10;;;;;;;;;;5115647;28;20434;-57
2021/05/22 14:07:14;;;;;;;1.23;0.90;;;;;;;;;;5115440;28;20478;-56
2021/05/22 14:09:41;;;;;;;1.43;1.00;;;;;;;;;;5115038;28;20882;-56
2021/05/22 14:12:09;;;;;;;0.80;0.80;;;;;;;;;;5115425;28;20441;-56
2021/05/22 14:14:36;;;;;;;1.47;1.03;;;;;;;;;;5115178;28;20480;-55
2021/05/22 14:17:03;;;;;;;2.23;1.00;;;;;;;;;;5114910;28;20932;-56
2021/05/22 14:19:30;;;;;;;1.00;0.90;;;;;;;;;;5115019;28;20471;-55
2021/05/22 14:21:57;;;;;;;1.00;0.70;;;;;;;;;;5114814;28;20453;-53
2021/05/22 14:24:24;;;;;;;0.87;0.83;;;;;;;;;;5115232;28;20445;-56
2021/05/22 14:26:51;;;;;;;2.43;1.30;;;;;;;;;;5115470;28;20452;-55
2021/05/22 14:29:18;;;;;;;1.30;1.00;;;;;;;;;;5114598;28;20469;-56
2021/05/22 14:31:45;;;;;;;1.30;0.93;;;;;;;;;;5120915;28;20456;-58
2021/05/22 14:34:12;;;;;;;1.47;1.00;;;;;;;;;;5134411;28;20475;-57
2021/05/22 14:36:38;;;;;;;2.50;1.13;;;;;;;;;;5129772;28;20437;-57
2021/05/22 14:39:05;;;;;;;1.97;1.00;;;;;;;;;;5130395;28;20472;-57
2021/05/22 14:41:33;;;;;;;1.67;1.17;;;;;;;;;;5115853;28;20453;-57
2021/05/22 14:44:00;;;;;;;1.47;0.90;;;;;;;;;;5115525;28;20487;-56
2021/05/22 14:46:27;;;;;;;2.50;0.80;;;;;;;;;;5115039;28;20445;-56
2021/05/22 14:48:54;;;;;;;1.63;1.00;;;;;;;;;;5114709;28;20604;-57
2021/05/22 14:51:21;;;;;;;1.33;0.80;;;;;;;;;;5113810;28;20502;-56
2021/05/22 14:53:47;;;;;;;1.47;1.00;;;;;;;;;;5114663;28;20452;-56
2021/05/22 14:56:14;;;;;;;2.17;1.10;;;;;;;;;;5115088;28;20449;-57